This is the latest recevied weather packets stored in our database for station/object OE6PWE-13. If no packets are shown the sender has not sent any weather packets the latest 10 day(s).
| Time | Temp. | Humidity | Pressure | Rain* | Wind** | Luminosity | Snow |
|---|---|---|---|---|---|---|---|
| 1777810513 | 26.11° C | 38% | 1016 hPa | 0 mm | - | - | - |
| 1777809621 | 25° C | 39% | 1016 hPa | 0 mm | - | - | - |
| 1777808718 | 24.44° C | 41% | 1016 hPa | 0 mm | - | - | - |
| 1777807821 | 24.44° C | 43% | 1017 hPa | 0 mm | - | - | - |
| 1777806914 | 23.89° C | 43% | 1017 hPa | 0 mm | - | - | - |
| 1777806020 | 24.44° C | 43% | 1017 hPa | 0 mm | - | - | - |
| 1777805113 | 24.44° C | 42% | 1017 hPa | 0 mm | - | - | - |
| 1777804220 | 23.89° C | 42% | 1017 hPa | 0 mm | - | - | - |
| 1777803314 | 24.44° C | 43% | 1017 hPa | 0 mm | - | - | - |
| 1777802421 | 23.33° C | 45% | 1018 hPa | 0 mm | - | - | - |
| 1777801513 | 22.22° C | 47% | 1018 hPa | 0 mm | - | - | - |
| 1777800621 | 23.33° C | 45% | 1018 hPa | 0 mm | - | - | - |
| 1777799714 | 22.22° C | 47% | 1018 hPa | 0 mm | - | - | - |
| 1777798820 | 22.22° C | 49% | 1018 hPa | 0 mm | - | - | - |
| 1777797913 | 22.22° C | 48% | 1018 hPa | 0 mm | - | - | - |
| 1777797020 | 20.56° C | 49% | 1018 hPa | 0 mm | - | - | - |
| 1777796114 | 20.56° C | 52% | 1018 hPa | 0 mm | - | - | - |
| 1777795220 | 20° C | 53% | 1019 hPa | 0 mm | - | - | - |
| 1777794313 | 19.44° C | 54% | 1018 hPa | 0 mm | - | - | - |
| 1777793421 | 20° C | 51% | 1018 hPa | 0 mm | - | - | - |
| 1777792512 | 17.22° C | 54% | 1019 hPa | 0 mm | - | - | - |
| 1777791620 | 15° C | 65% | 1019 hPa | 0 mm | - | - | - |
| 1777790714 | 11.67° C | 73% | 1020 hPa | 0 mm | - | - | - |
| 1777789821 | 10° C | 82% | 1020 hPa | 0 mm | - | - | - |
| 1777788913 | 8.89° C | 88% | 1020 hPa | 0 mm | - | - | - |
* Rain latest hour (hover to see other rain measurements)
** Current wind speed in m/s (hover to see current wind gust speed)